sensor_id;sensor_type;location;lat;lon;timestamp;temperature;humidity
59128;DHT22;44912;52.754;5.994;2022-12-08T00:01:33;2.60;99.90
59128;DHT22;44912;52.754;5.994;2022-12-08T00:04:00;2.70;99.90
59128;DHT22;44912;52.754;5.994;2022-12-08T00:09:20;2.80;99.90
59128;DHT22;44912;52.754;5.994;2022-12-08T00:11:47;2.80;99.90
59128;DHT22;44912;52.754;5.994;2022-12-08T00:14:12;2.90;99.90
59128;DHT22;44912;52.754;5.994;2022-12-08T00:16:38;3.00;99.90
59128;DHT22;44912;52.754;5.994;2022-12-08T00:19:03;2.90;99.90
59128;DHT22;44912;52.754;5.994;2022-12-08T00:21:29;2.90;99.90
59128;DHT22;44912;52.754;5.994;2022-12-08T00:23:55;2.90;99.90
59128;DHT22;44912;52.754;5.994;2022-12-08T00:26:20;3.00;99.90
59128;DHT22;44912;52.754;5.994;2022-12-08T00:28:46;3.00;99.90
59128;DHT22;44912;52.754;5.994;2022-12-08T00:31:12;3.00;99.90
59128;DHT22;44912;52.754;5.994;2022-12-08T00:33:37;3.00;99.90
59128;DHT22;44912;52.754;5.994;2022-12-08T00:36:07;3.00;99.90
59128;DHT22;44912;52.754;5.994;2022-12-08T00:38:33;3.10;99.90
59128;DHT22;44912;52.754;5.994;2022-12-08T00:40:59;3.10;99.90
59128;DHT22;44912;52.754;5.994;2022-12-08T00:43:24;3.20;99.90
59128;DHT22;44912;52.754;5.994;2022-12-08T00:45:51;3.20;99.90
59128;DHT22;44912;52.754;5.994;2022-12-08T00:48:16;3.30;99.90
59128;DHT22;44912;52.754;5.994;2022-12-08T00:50:42;3.30;99.90
59128;DHT22;44912;52.754;5.994;2022-12-08T00:53:07;3.30;99.90
59128;DHT22;44912;52.754;5.994;2022-12-08T00:55:33;3.30;99.90
59128;DHT22;44912;52.754;5.994;2022-12-08T00:57:58;3.30;99.90
59128;DHT22;44912;52.754;5.994;2022-12-08T01:00:24;3.40;99.90
59128;DHT22;44912;52.754;5.994;2022-12-08T01:02:49;3.50;99.90
59128;DHT22;44912;52.754;5.994;2022-12-08T01:05:15;3.50;99.90
59128;DHT22;44912;52.754;5.994;2022-12-08T01:07:40;3.60;99.90
59128;DHT22;44912;52.754;5.994;2022-12-08T01:10:06;3.70;99.90
59128;DHT22;44912;52.754;5.994;2022-12-08T01:12:32;3.70;99.90
59128;DHT22;44912;52.754;5.994;2022-12-08T01:14:58;3.70;99.90
59128;DHT22;44912;52.754;5.994;2022-12-08T01:17:23;3.80;99.90
59128;DHT22;44912;52.754;5.994;2022-12-08T01:19:49;3.80;99.90
59128;DHT22;44912;52.754;5.994;2022-12-08T01:22:15;3.80;99.90
59128;DHT22;44912;52.754;5.994;2022-12-08T01:24:40;3.80;99.90
59128;DHT22;44912;52.754;5.994;2022-12-08T01:27:06;3.80;99.90
59128;DHT22;44912;52.754;5.994;2022-12-08T01:29:31;3.80;99.90
59128;DHT22;44912;52.754;5.994;2022-12-08T01:31:57;3.80;99.90
59128;DHT22;44912;52.754;5.994;2022-12-08T01:34:22;3.80;99.90
59128;DHT22;44912;52.754;5.994;2022-12-08T01:36:48;3.80;99.90
59128;DHT22;44912;52.754;5.994;2022-12-08T01:39:16;3.80;99.90
59128;DHT22;44912;52.754;5.994;2022-12-08T01:41:42;3.70;99.90
59128;DHT22;44912;52.754;5.994;2022-12-08T01:46:42;3.70;99.90
59128;DHT22;44912;52.754;5.994;2022-12-08T01:49:21;3.70;99.90
59128;DHT22;44912;52.754;5.994;2022-12-08T01:51:58;3.70;99.90
59128;DHT22;44912;52.754;5.994;2022-12-08T01:55:09;3.70;99.90
59128;DHT22;44912;52.754;5.994;2022-12-08T01:57:20;3.70;99.90
59128;DHT22;44912;52.754;5.994;2022-12-08T02:00:00;3.70;99.90
59128;DHT22;44912;52.754;5.994;2022-12-08T02:02:31;3.70;99.90
59128;DHT22;44912;52.754;5.994;2022-12-08T02:04:58;3.80;99.90
59128;DHT22;44912;52.754;5.994;2022-12-08T02:07:24;3.80;99.90
59128;DHT22;44912;52.754;5.994;2022-12-08T02:09:51;3.80;99.90
59128;DHT22;44912;52.754;5.994;2022-12-08T02:12:17;3.80;99.90
59128;DHT22;44912;52.754;5.994;2022-12-08T02:14:43;3.80;99.90
59128;DHT22;44912;52.754;5.994;2022-12-08T02:17:31;3.90;99.90
59128;DHT22;44912;52.754;5.994;2022-12-08T02:20:16;3.90;99.90
59128;DHT22;44912;52.754;5.994;2022-12-08T02:22:57;3.90;99.90
59128;DHT22;44912;52.754;5.994;2022-12-08T02:31:03;4.00;99.90
59128;DHT22;44912;52.754;5.994;2022-12-08T02:33:54;4.00;99.90
59128;DHT22;44912;52.754;5.994;2022-12-08T02:39:17;4.00;99.90
59128;DHT22;44912;52.754;5.994;2022-12-08T02:47:36;3.90;99.90
59128;DHT22;44912;52.754;5.994;2022-12-08T02:50:02;3.90;99.90
59128;DHT22;44912;52.754;5.994;2022-12-08T03:00:24;3.60;99.90
59128;DHT22;44912;52.754;5.994;2022-12-08T03:03:14;3.60;99.90
59128;DHT22;44912;52.754;5.994;2022-12-08T03:05:50;3.50;99.90
59128;DHT22;44912;52.754;5.994;2022-12-08T03:11:20;3.40;99.90
59128;DHT22;44912;52.754;5.994;2022-12-08T03:13:56;3.40;99.90
59128;DHT22;44912;52.754;5.994;2022-12-08T03:16:28;3.40;99.90
59128;DHT22;44912;52.754;5.994;2022-12-08T03:19:06;3.40;99.90
59128;DHT22;44912;52.754;5.994;2022-12-08T03:21:34;3.40;99.90
59128;DHT22;44912;52.754;5.994;2022-12-08T03:24:01;3.50;99.90
59128;DHT22;44912;52.754;5.994;2022-12-08T03:29:06;3.50;99.90
59128;DHT22;44912;52.754;5.994;2022-12-08T03:31:36;3.50;99.90
59128;DHT22;44912;52.754;5.994;2022-12-08T03:34:04;3.50;99.90
59128;DHT22;44912;52.754;5.994;2022-12-08T03:36:31;3.50;99.90
59128;DHT22;44912;52.754;5.994;2022-12-08T03:38:56;3.50;99.90
59128;DHT22;44912;52.754;5.994;2022-12-08T03:41:22;3.50;99.90
59128;DHT22;44912;52.754;5.994;2022-12-08T03:43:55;3.50;99.90
59128;DHT22;44912;52.754;5.994;2022-12-08T03:46:25;3.50;99.90
59128;DHT22;44912;52.754;5.994;2022-12-08T03:48:51;3.60;99.90
59128;DHT22;44912;52.754;5.994;2022-12-08T03:51:17;3.60;99.90
59128;DHT22;44912;52.754;5.994;2022-12-08T03:53:43;3.50;99.90
59128;DHT22;44912;52.754;5.994;2022-12-08T03:58:43;3.60;99.90
59128;DHT22;44912;52.754;5.994;2022-12-08T04:01:09;3.60;99.90
59128;DHT22;44912;52.754;5.994;2022-12-08T04:03:35;3.60;99.90
59128;DHT22;44912;52.754;5.994;2022-12-08T04:06:00;3.60;99.90
59128;DHT22;44912;52.754;5.994;2022-12-08T04:08:26;3.60;99.90
59128;DHT22;44912;52.754;5.994;2022-12-08T04:10:51;3.60;99.90
59128;DHT22;44912;52.754;5.994;2022-12-08T04:13:17;3.60;99.90
59128;DHT22;44912;52.754;5.994;2022-12-08T04:15:46;3.50;99.90
59128;DHT22;44912;52.754;5.994;2022-12-08T04:18:12;3.50;99.90
59128;DHT22;44912;52.754;5.994;2022-12-08T04:20:40;3.50;99.90
59128;DHT22;44912;52.754;5.994;2022-12-08T04:23:06;3.50;99.90
59128;DHT22;44912;52.754;5.994;2022-12-08T04:25:32;3.50;99.90
59128;DHT22;44912;52.754;5.994;2022-12-08T04:27:58;3.40;99.90
59128;DHT22;44912;52.754;5.994;2022-12-08T04:30:23;3.40;99.90
59128;DHT22;44912;52.754;5.994;2022-12-08T04:32:49;3.30;99.90
59128;DHT22;44912;52.754;5.994;2022-12-08T04:35:14;3.30;99.90
59128;DHT22;44912;52.754;5.994;2022-12-08T04:37:40;3.30;99.90
59128;DHT22;44912;52.754;5.994;2022-12-08T04:40:06;3.30;99.90
59128;DHT22;44912;52.754;5.994;2022-12-08T04:42:32;3.40;99.90
59128;DHT22;44912;52.754;5.994;2022-12-08T04:44:57;3.30;99.90
59128;DHT22;44912;52.754;5.994;2022-12-08T04:47:23;3.40;99.90
59128;DHT22;44912;52.754;5.994;2022-12-08T04:49:48;3.40;99.90
59128;DHT22;44912;52.754;5.994;2022-12-08T04:52:14;3.40;99.90
59128;DHT22;44912;52.754;5.994;2022-12-08T04:54:39;3.40;99.90
59128;DHT22;44912;52.754;5.994;2022-12-08T04:57:05;3.30;99.90
59128;DHT22;44912;52.754;5.994;2022-12-08T04:59:30;3.30;99.90
59128;DHT22;44912;52.754;5.994;2022-12-08T05:01:56;3.30;99.90
59128;DHT22;44912;52.754;5.994;2022-12-08T05:04:21;3.30;99.90
59128;DHT22;44912;52.754;5.994;2022-12-08T05:06:47;3.40;99.90
59128;DHT22;44912;52.754;5.994;2022-12-08T05:09:12;3.30;99.90
59128;DHT22;44912;52.754;5.994;2022-12-08T05:11:38;3.30;99.90
59128;DHT22;44912;52.754;5.994;2022-12-08T05:14:09;3.30;99.90
59128;DHT22;44912;52.754;5.994;2022-12-08T05:16:36;3.30;99.90
59128;DHT22;44912;52.754;5.994;2022-12-08T05:19:01;3.30;99.90
59128;DHT22;44912;52.754;5.994;2022-12-08T05:21:27;3.30;99.90
59128;DHT22;44912;52.754;5.994;2022-12-08T05:23:52;3.30;99.90
59128;DHT22;44912;52.754;5.994;2022-12-08T05:26:18;3.30;99.90
59128;DHT22;44912;52.754;5.994;2022-12-08T05:28:43;3.30;99.90
59128;DHT22;44912;52.754;5.994;2022-12-08T05:31:10;3.30;99.90
59128;DHT22;44912;52.754;5.994;2022-12-08T05:33:36;3.20;99.90
59128;DHT22;44912;52.754;5.994;2022-12-08T05:36:02;3.20;99.90
59128;DHT22;44912;52.754;5.994;2022-12-08T05:38:27;3.20;99.90
59128;DHT22;44912;52.754;5.994;2022-12-08T05:40:53;3.20;99.90
59128;DHT22;44912;52.754;5.994;2022-12-08T05:43:19;3.20;99.90
59128;DHT22;44912;52.754;5.994;2022-12-08T05:45:44;3.20;99.90
59128;DHT22;44912;52.754;5.994;2022-12-08T05:48:10;3.10;99.90
59128;DHT22;44912;52.754;5.994;2022-12-08T05:50:36;3.20;99.90
59128;DHT22;44912;52.754;5.994;2022-12-08T05:53:01;3.10;99.90
59128;DHT22;44912;52.754;5.994;2022-12-08T05:55:27;3.20;99.90
59128;DHT22;44912;52.754;5.994;2022-12-08T05:57:52;3.20;99.90
59128;DHT22;44912;52.754;5.994;2022-12-08T06:00:19;3.20;99.90
59128;DHT22;44912;52.754;5.994;2022-12-08T06:02:44;3.30;99.90
59128;DHT22;44912;52.754;5.994;2022-12-08T06:05:10;3.30;99.90
59128;DHT22;44912;52.754;5.994;2022-12-08T06:07:36;3.40;99.90
59128;DHT22;44912;52.754;5.994;2022-12-08T06:10:02;3.40;99.90
59128;DHT22;44912;52.754;5.994;2022-12-08T06:12:28;3.50;99.90
59128;DHT22;44912;52.754;5.994;2022-12-08T06:14:53;3.50;99.90
59128;DHT22;44912;52.754;5.994;2022-12-08T06:17:19;3.50;99.90
59128;DHT22;44912;52.754;5.994;2022-12-08T06:19:44;3.50;99.90
59128;DHT22;44912;52.754;5.994;2022-12-08T06:22:10;3.50;99.90
59128;DHT22;44912;52.754;5.994;2022-12-08T06:24:35;3.50;99.90
59128;DHT22;44912;52.754;5.994;2022-12-08T06:27:01;3.60;99.90
59128;DHT22;44912;52.754;5.994;2022-12-08T06:29:26;3.60;99.90
59128;DHT22;44912;52.754;5.994;2022-12-08T06:31:52;3.60;99.90
59128;DHT22;44912;52.754;5.994;2022-12-08T06:34:17;3.60;99.90
59128;DHT22;44912;52.754;5.994;2022-12-08T06:36:43;3.60;99.90
59128;DHT22;44912;52.754;5.994;2022-12-08T06:39:09;3.60;99.90
59128;DHT22;44912;52.754;5.994;2022-12-08T06:41:35;3.60;99.90
59128;DHT22;44912;52.754;5.994;2022-12-08T06:44:21;3.70;99.90
59128;DHT22;44912;52.754;5.994;2022-12-08T06:46:46;3.60;99.90
59128;DHT22;44912;52.754;5.994;2022-12-08T06:49:12;3.70;99.90
59128;DHT22;44912;52.754;5.994;2022-12-08T06:51:37;3.60;99.90
59128;DHT22;44912;52.754;5.994;2022-12-08T06:54:03;3.70;99.90
59128;DHT22;44912;52.754;5.994;2022-12-08T06:56:28;3.70;99.90
59128;DHT22;44912;52.754;5.994;2022-12-08T06:58:54;3.70;99.90
59128;DHT22;44912;52.754;5.994;2022-12-08T07:01:20;3.70;99.90
59128;DHT22;44912;52.754;5.994;2022-12-08T07:03:46;3.70;99.90
59128;DHT22;44912;52.754;5.994;2022-12-08T07:06:19;3.70;99.90
59128;DHT22;44912;52.754;5.994;2022-12-08T07:08:45;3.70;99.90
59128;DHT22;44912;52.754;5.994;2022-12-08T07:11:11;3.60;99.90
59128;DHT22;44912;52.754;5.994;2022-12-08T07:13:37;3.60;99.90
59128;DHT22;44912;52.754;5.994;2022-12-08T07:16:10;3.60;99.90
59128;DHT22;44912;52.754;5.994;2022-12-08T07:18:36;3.60;99.90
59128;DHT22;44912;52.754;5.994;2022-12-08T07:21:13;3.50;99.90
59128;DHT22;44912;52.754;5.994;2022-12-08T07:23:44;3.50;99.90
59128;DHT22;44912;52.754;5.994;2022-12-08T07:26:11;3.50;99.90
59128;DHT22;44912;52.754;5.994;2022-12-08T07:28:38;3.50;99.90
59128;DHT22;44912;52.754;5.994;2022-12-08T07:31:05;3.40;99.90
59128;DHT22;44912;52.754;5.994;2022-12-08T07:33:32;3.40;99.90
59128;DHT22;44912;52.754;5.994;2022-12-08T07:35:59;3.30;99.90
59128;DHT22;44912;52.754;5.994;2022-12-08T07:38:26;3.30;99.90
59128;DHT22;44912;52.754;5.994;2022-12-08T07:40:53;3.30;99.90
59128;DHT22;44912;52.754;5.994;2022-12-08T07:43:19;3.30;99.90
59128;DHT22;44912;52.754;5.994;2022-12-08T07:45:45;3.20;99.90
59128;DHT22;44912;52.754;5.994;2022-12-08T07:48:11;3.20;99.90
59128;DHT22;44912;52.754;5.994;2022-12-08T07:50:37;3.20;99.90
59128;DHT22;44912;52.754;5.994;2022-12-08T07:53:03;3.20;99.90
59128;DHT22;44912;52.754;5.994;2022-12-08T07:55:29;3.20;99.90
59128;DHT22;44912;52.754;5.994;2022-12-08T07:57:54;3.20;99.90
59128;DHT22;44912;52.754;5.994;2022-12-08T08:00:20;3.20;99.90
59128;DHT22;44912;52.754;5.994;2022-12-08T08:02:46;3.20;99.90
59128;DHT22;44912;52.754;5.994;2022-12-08T08:05:12;3.20;99.90
59128;DHT22;44912;52.754;5.994;2022-12-08T08:07:38;3.20;99.90
59128;DHT22;44912;52.754;5.994;2022-12-08T08:10:04;3.30;99.90
59128;DHT22;44912;52.754;5.994;2022-12-08T08:12:31;3.30;99.90
59128;DHT22;44912;52.754;5.994;2022-12-08T08:14:57;3.30;99.90
59128;DHT22;44912;52.754;5.994;2022-12-08T08:17:23;3.30;99.90
59128;DHT22;44912;52.754;5.994;2022-12-08T08:19:49;3.30;99.90
59128;DHT22;44912;52.754;5.994;2022-12-08T08:22:14;3.30;99.90
59128;DHT22;44912;52.754;5.994;2022-12-08T08:24:40;3.40;99.90
59128;DHT22;44912;52.754;5.994;2022-12-08T08:27:05;3.40;99.90
59128;DHT22;44912;52.754;5.994;2022-12-08T08:29:31;3.40;99.90
59128;DHT22;44912;52.754;5.994;2022-12-08T08:31:56;3.40;99.90
59128;DHT22;44912;52.754;5.994;2022-12-08T08:34:22;3.40;99.90
59128;DHT22;44912;52.754;5.994;2022-12-08T08:36:47;3.40;99.90
59128;DHT22;44912;52.754;5.994;2022-12-08T08:39:13;3.40;99.90
59128;DHT22;44912;52.754;5.994;2022-12-08T08:41:38;3.50;99.90
59128;DHT22;44912;52.754;5.994;2022-12-08T08:44:04;3.40;99.90
59128;DHT22;44912;52.754;5.994;2022-12-08T08:46:30;3.50;99.90
59128;DHT22;44912;52.754;5.994;2022-12-08T08:48:56;3.50;99.90
59128;DHT22;44912;52.754;5.994;2022-12-08T08:51:21;3.50;99.90
59128;DHT22;44912;52.754;5.994;2022-12-08T08:53:47;3.50;99.90
59128;DHT22;44912;52.754;5.994;2022-12-08T08:56:16;3.60;99.90
59128;DHT22;44912;52.754;5.994;2022-12-08T08:58:44;3.50;99.90
59128;DHT22;44912;52.754;5.994;2022-12-08T09:01:15;3.60;99.90
59128;DHT22;44912;52.754;5.994;2022-12-08T09:03:41;3.60;99.90
59128;DHT22;44912;52.754;5.994;2022-12-08T09:06:06;3.60;99.90
59128;DHT22;44912;52.754;5.994;2022-12-08T09:08:32;3.60;99.90
59128;DHT22;44912;52.754;5.994;2022-12-08T09:10:57;3.70;99.90
59128;DHT22;44912;52.754;5.994;2022-12-08T09:13:23;3.70;99.90
59128;DHT22;44912;52.754;5.994;2022-12-08T09:15:48;3.70;99.90
59128;DHT22;44912;52.754;5.994;2022-12-08T09:18:14;3.70;99.90
59128;DHT22;44912;52.754;5.994;2022-12-08T09:20:39;3.80;99.90
59128;DHT22;44912;52.754;5.994;2022-12-08T09:23:05;3.80;99.90
59128;DHT22;44912;52.754;5.994;2022-12-08T09:25:31;3.70;99.90
59128;DHT22;44912;52.754;5.994;2022-12-08T09:27:56;3.80;99.90
59128;DHT22;44912;52.754;5.994;2022-12-08T09:30:22;3.80;99.90
59128;DHT22;44912;52.754;5.994;2022-12-08T09:32:47;3.80;99.90
59128;DHT22;44912;52.754;5.994;2022-12-08T09:35:14;3.80;99.90
59128;DHT22;44912;52.754;5.994;2022-12-08T09:37:39;3.80;99.90
59128;DHT22;44912;52.754;5.994;2022-12-08T09:40:06;3.80;99.90
59128;DHT22;44912;52.754;5.994;2022-12-08T09:42:50;3.80;99.90
59128;DHT22;44912;52.754;5.994;2022-12-08T09:45:16;3.80;99.90
59128;DHT22;44912;52.754;5.994;2022-12-08T09:48:02;3.80;99.90
59128;DHT22;44912;52.754;5.994;2022-12-08T09:50:49;3.80;99.90
59128;DHT22;44912;52.754;5.994;2022-12-08T09:53:31;3.80;99.90
59128;DHT22;44912;52.754;5.994;2022-12-08T09:56:05;3.80;99.90
59128;DHT22;44912;52.754;5.994;2022-12-08T09:58:48;3.80;99.90
59128;DHT22;44912;52.754;5.994;2022-12-08T10:01:18;3.70;99.90
59128;DHT22;44912;52.754;5.994;2022-12-08T10:03:44;3.70;99.90
59128;DHT22;44912;52.754;5.994;2022-12-08T10:06:30;3.60;99.90
59128;DHT22;44912;52.754;5.994;2022-12-08T10:11:59;3.60;99.90
59128;DHT22;44912;52.754;5.994;2022-12-08T10:17:54;3.60;99.90
59128;DHT22;44912;52.754;5.994;2022-12-08T10:20:15;3.60;99.90
59128;DHT22;44912;52.754;5.994;2022-12-08T10:22:42;3.60;99.90
59128;DHT22;44912;52.754;5.994;2022-12-08T10:25:21;3.50;99.90
59128;DHT22;44912;52.754;5.994;2022-12-08T10:27:52;3.50;99.90
59128;DHT22;44912;52.754;5.994;2022-12-08T10:30:19;3.60;99.90
59128;DHT22;44912;52.754;5.994;2022-12-08T10:32:48;3.60;99.90
59128;DHT22;44912;52.754;5.994;2022-12-08T10:35:16;3.60;99.90
59128;DHT22;44912;52.754;5.994;2022-12-08T10:40:21;3.70;99.90
59128;DHT22;44912;52.754;5.994;2022-12-08T10:42:51;3.70;99.90
59128;DHT22;44912;52.754;5.994;2022-12-08T10:45:46;3.70;99.90
59128;DHT22;44912;52.754;5.994;2022-12-08T10:48:25;3.80;99.90
59128;DHT22;44912;52.754;5.994;2022-12-08T10:50:56;3.80;99.90
59128;DHT22;44912;52.754;5.994;2022-12-08T10:58:38;4.00;99.90
59128;DHT22;44912;52.754;5.994;2022-12-08T11:01:20;4.10;99.90
59128;DHT22;44912;52.754;5.994;2022-12-08T11:03:58;4.10;99.90
59128;DHT22;44912;52.754;5.994;2022-12-08T11:08:59;4.30;99.90
59128;DHT22;44912;52.754;5.994;2022-12-08T11:14:27;4.30;99.90
59128;DHT22;44912;52.754;5.994;2022-12-08T11:17:00;4.40;99.90
59128;DHT22;44912;52.754;5.994;2022-12-08T11:19:27;4.40;99.90
59128;DHT22;44912;52.754;5.994;2022-12-08T11:21:52;4.40;99.90
59128;DHT22;44912;52.754;5.994;2022-12-08T11:24:28;4.40;99.90
59128;DHT22;44912;52.754;5.994;2022-12-08T11:26:59;4.40;99.90
59128;DHT22;44912;52.754;5.994;2022-12-08T11:29:30;4.40;99.90
59128;DHT22;44912;52.754;5.994;2022-12-08T11:31:59;4.40;99.90
59128;DHT22;44912;52.754;5.994;2022-12-08T11:36:55;4.40;99.90
59128;DHT22;44912;52.754;5.994;2022-12-08T11:39:21;4.40;99.90
59128;DHT22;44912;52.754;5.994;2022-12-08T11:41:47;4.40;99.90
59128;DHT22;44912;52.754;5.994;2022-12-08T11:44:34;4.50;99.90
59128;DHT22;44912;52.754;5.994;2022-12-08T11:47:07;4.50;99.90
59128;DHT22;44912;52.754;5.994;2022-12-08T11:49:37;4.60;99.90
59128;DHT22;44912;52.754;5.994;2022-12-08T11:52:21;4.70;99.90
59128;DHT22;44912;52.754;5.994;2022-12-08T11:54:56;4.90;99.90
59128;DHT22;44912;52.754;5.994;2022-12-08T11:57:26;5.00;99.90
59128;DHT22;44912;52.754;5.994;2022-12-08T11:59:56;5.20;99.90
59128;DHT22;44912;52.754;5.994;2022-12-08T12:02:31;5.20;99.90
59128;DHT22;44912;52.754;5.994;2022-12-08T12:05:04;5.30;99.90
59128;DHT22;44912;52.754;5.994;2022-12-08T12:13:27;5.40;99.90
59128;DHT22;44912;52.754;5.994;2022-12-08T12:16:18;5.30;99.90
59128;DHT22;44912;52.754;5.994;2022-12-08T12:19:02;5.20;99.90
59128;DHT22;44912;52.754;5.994;2022-12-08T12:21:40;5.10;99.90
59128;DHT22;44912;52.754;5.994;2022-12-08T12:24:07;5.10;99.90
59128;DHT22;44912;52.754;5.994;2022-12-08T12:26:36;5.00;99.90
59128;DHT22;44912;52.754;5.994;2022-12-08T12:29:17;5.00;99.90
59128;DHT22;44912;52.754;5.994;2022-12-08T12:31:48;4.90;99.90
59128;DHT22;44912;52.754;5.994;2022-12-08T12:34:26;4.90;99.90
59128;DHT22;44912;52.754;5.994;2022-12-08T12:37:02;5.00;99.90
59128;DHT22;44912;52.754;5.994;2022-12-08T12:39:31;5.00;99.90
59128;DHT22;44912;52.754;5.994;2022-12-08T12:42:03;5.00;99.90
59128;DHT22;44912;52.754;5.994;2022-12-08T12:47:02;5.10;99.90
59128;DHT22;44912;52.754;5.994;2022-12-08T12:57:35;5.10;99.90
59128;DHT22;44912;52.754;5.994;2022-12-08T13:02:37;5.10;99.90
59128;DHT22;44912;52.754;5.994;2022-12-08T13:05:25;5.20;99.90
59128;DHT22;44912;52.754;5.994;2022-12-08T13:08:00;5.20;99.90
59128;DHT22;44912;52.754;5.994;2022-12-08T13:13:05;5.10;99.90
59128;DHT22;44912;52.754;5.994;2022-12-08T13:18:30;5.00;99.90
59128;DHT22;44912;52.754;5.994;2022-12-08T13:21:40;5.00;99.90
59128;DHT22;44912;52.754;5.994;2022-12-08T13:23:48;5.00;99.90
59128;DHT22;44912;52.754;5.994;2022-12-08T13:31:43;5.10;99.90
59128;DHT22;44912;52.754;5.994;2022-12-08T13:34:14;5.10;99.90
59128;DHT22;44912;52.754;5.994;2022-12-08T13:36:49;5.10;99.90
59128;DHT22;44912;52.754;5.994;2022-12-08T13:39:50;5.10;99.90
59128;DHT22;44912;52.754;5.994;2022-12-08T13:42:28;4.90;99.90
59128;DHT22;44912;52.754;5.994;2022-12-08T13:45:14;4.90;99.90
59128;DHT22;44912;52.754;5.994;2022-12-08T13:47:59;4.80;99.90
59128;DHT22;44912;52.754;5.994;2022-12-08T13:53:38;4.70;99.90
59128;DHT22;44912;52.754;5.994;2022-12-08T13:56:06;4.70;99.90
59128;DHT22;44912;52.754;5.994;2022-12-08T13:58:35;4.60;99.90
59128;DHT22;44912;52.754;5.994;2022-12-08T14:01:12;4.60;99.90
59128;DHT22;44912;52.754;5.994;2022-12-08T14:06:25;4.60;99.90
59128;DHT22;44912;52.754;5.994;2022-12-08T14:08:55;4.50;99.90
59128;DHT22;44912;52.754;5.994;2022-12-08T14:11:28;4.40;99.90
59128;DHT22;44912;52.754;5.994;2022-12-08T14:14:10;4.40;99.90
59128;DHT22;44912;52.754;5.994;2022-12-08T14:16:43;4.30;99.90
59128;DHT22;44912;52.754;5.994;2022-12-08T14:19:19;4.40;99.90
59128;DHT22;44912;52.754;5.994;2022-12-08T14:21:56;4.40;99.90
59128;DHT22;44912;52.754;5.994;2022-12-08T14:24:24;4.30;99.90
59128;DHT22;44912;52.754;5.994;2022-12-08T14:26:52;4.30;99.90
59128;DHT22;44912;52.754;5.994;2022-12-08T14:32:18;4.20;99.90
59128;DHT22;44912;52.754;5.994;2022-12-08T14:34:44;4.10;99.90
59128;DHT22;44912;52.754;5.994;2022-12-08T14:37:11;4.10;99.90
59128;DHT22;44912;52.754;5.994;2022-12-08T14:39:38;4.00;99.90
59128;DHT22;44912;52.754;5.994;2022-12-08T14:42:05;3.90;99.90
59128;DHT22;44912;52.754;5.994;2022-12-08T14:44:32;4.00;99.90
59128;DHT22;44912;52.754;5.994;2022-12-08T14:47:04;3.90;99.90
59128;DHT22;44912;52.754;5.994;2022-12-08T14:49:38;3.90;99.90
59128;DHT22;44912;52.754;5.994;2022-12-08T14:52:10;3.90;99.90
59128;DHT22;44912;52.754;5.994;2022-12-08T14:54:37;3.90;99.90
59128;DHT22;44912;52.754;5.994;2022-12-08T14:57:04;3.90;99.90
59128;DHT22;44912;52.754;5.994;2022-12-08T14:59:31;3.90;99.90
59128;DHT22;44912;52.754;5.994;2022-12-08T15:02:23;4.00;99.90
59128;DHT22;44912;52.754;5.994;2022-12-08T15:05:17;4.00;99.90
59128;DHT22;44912;52.754;5.994;2022-12-08T15:07:46;3.90;99.90
59128;DHT22;44912;52.754;5.994;2022-12-08T15:13:19;3.70;99.90
59128;DHT22;44912;52.754;5.994;2022-12-08T15:20:51;3.40;99.90
59128;DHT22;44912;52.754;5.994;2022-12-08T15:23:27;3.30;99.90
59128;DHT22;44912;52.754;5.994;2022-12-08T15:25:54;3.30;99.90
59128;DHT22;44912;52.754;5.994;2022-12-08T15:28:22;3.20;99.90
59128;DHT22;44912;52.754;5.994;2022-12-08T15:30:49;3.20;99.90
59128;DHT22;44912;52.754;5.994;2022-12-08T15:33:15;3.10;99.90
59128;DHT22;44912;52.754;5.994;2022-12-08T15:35:41;3.10;99.90
59128;DHT22;44912;52.754;5.994;2022-12-08T15:38:16;3.10;99.90
59128;DHT22;44912;52.754;5.994;2022-12-08T15:40:43;3.10;99.90
59128;DHT22;44912;52.754;5.994;2022-12-08T15:43:10;3.20;99.90
59128;DHT22;44912;52.754;5.994;2022-12-08T15:45:36;3.20;99.90
59128;DHT22;44912;52.754;5.994;2022-12-08T15:48:02;3.20;99.90
59128;DHT22;44912;52.754;5.994;2022-12-08T15:50:27;3.20;99.90
59128;DHT22;44912;52.754;5.994;2022-12-08T15:52:53;3.10;99.90
59128;DHT22;44912;52.754;5.994;2022-12-08T15:55:19;3.20;99.90
59128;DHT22;44912;52.754;5.994;2022-12-08T15:57:48;3.20;99.90
59128;DHT22;44912;52.754;5.994;2022-12-08T16:00:26;3.30;99.90
59128;DHT22;44912;52.754;5.994;2022-12-08T16:02:53;3.40;99.90
59128;DHT22;44912;52.754;5.994;2022-12-08T16:05:21;3.40;99.90
59128;DHT22;44912;52.754;5.994;2022-12-08T16:07:46;3.50;99.90
59128;DHT22;44912;52.754;5.994;2022-12-08T16:10:24;3.50;99.90
59128;DHT22;44912;52.754;5.994;2022-12-08T16:12:51;3.50;99.90
59128;DHT22;44912;52.754;5.994;2022-12-08T16:15:39;3.60;99.90
59128;DHT22;44912;52.754;5.994;2022-12-08T16:18:05;3.60;99.90
59128;DHT22;44912;52.754;5.994;2022-12-08T16:20:31;3.60;99.90
59128;DHT22;44912;52.754;5.994;2022-12-08T16:22:57;3.70;99.90
59128;DHT22;44912;52.754;5.994;2022-12-08T16:25:23;3.70;99.90
59128;DHT22;44912;52.754;5.994;2022-12-08T16:27:54;3.70;99.90
59128;DHT22;44912;52.754;5.994;2022-12-08T16:30:20;3.70;99.90
59128;DHT22;44912;52.754;5.994;2022-12-08T16:32:46;3.70;99.90
59128;DHT22;44912;52.754;5.994;2022-12-08T16:35:12;3.70;99.90
59128;DHT22;44912;52.754;5.994;2022-12-08T16:37:38;3.70;99.90
59128;DHT22;44912;52.754;5.994;2022-12-08T16:40:04;3.70;99.90
59128;DHT22;44912;52.754;5.994;2022-12-08T16:42:31;3.70;99.90
59128;DHT22;44912;52.754;5.994;2022-12-08T16:45:40;3.70;99.90
59128;DHT22;44912;52.754;5.994;2022-12-08T16:48:12;3.70;99.90
59128;DHT22;44912;52.754;5.994;2022-12-08T16:50:42;3.60;99.90
59128;DHT22;44912;52.754;5.994;2022-12-08T16:53:10;3.60;99.90
59128;DHT22;44912;52.754;5.994;2022-12-08T16:55:36;3.50;99.90
59128;DHT22;44912;52.754;5.994;2022-12-08T16:58:02;3.50;99.90
59128;DHT22;44912;52.754;5.994;2022-12-08T17:00:29;3.50;99.90
59128;DHT22;44912;52.754;5.994;2022-12-08T17:02:55;3.50;99.90
59128;DHT22;44912;52.754;5.994;2022-12-08T17:05:22;3.50;99.90
59128;DHT22;44912;52.754;5.994;2022-12-08T17:07:51;3.40;99.90
59128;DHT22;44912;52.754;5.994;2022-12-08T17:10:20;3.40;99.90
59128;DHT22;44912;52.754;5.994;2022-12-08T17:12:47;3.40;99.90
59128;DHT22;44912;52.754;5.994;2022-12-08T17:15:15;3.30;99.90
59128;DHT22;44912;52.754;5.994;2022-12-08T17:17:42;3.30;99.90
59128;DHT22;44912;52.754;5.994;2022-12-08T17:20:11;3.30;99.90
59128;DHT22;44912;52.754;5.994;2022-12-08T17:22:37;3.20;99.90
59128;DHT22;44912;52.754;5.994;2022-12-08T17:25:04;3.20;99.90
59128;DHT22;44912;52.754;5.994;2022-12-08T17:27:30;3.10;99.90
59128;DHT22;44912;52.754;5.994;2022-12-08T17:29:55;3.10;99.90
59128;DHT22;44912;52.754;5.994;2022-12-08T17:32:21;3.00;99.90
59128;DHT22;44912;52.754;5.994;2022-12-08T17:34:47;3.00;99.90
59128;DHT22;44912;52.754;5.994;2022-12-08T17:37:12;3.00;99.90
59128;DHT22;44912;52.754;5.994;2022-12-08T17:39:38;2.90;99.90
59128;DHT22;44912;52.754;5.994;2022-12-08T17:42:04;2.90;99.90